sensor_id;sensor_type;location;lat;lon;timestamp;pressure;altitude;pressure_sealevel;temperature;humidity
59939;BME280;45801;51.810;19.444;2023-03-31T00:01:40;98083.11;;;9.91;75.60
59939;BME280;45801;51.810;19.444;2023-03-31T00:04:08;98081.30;;;9.90;75.90
59939;BME280;45801;51.810;19.444;2023-03-31T00:06:40;98082.30;;;9.88;76.01
59939;BME280;45801;51.810;19.444;2023-03-31T00:09:13;98088.25;;;9.87;75.79
59939;BME280;45801;51.810;19.444;2023-03-31T00:11:41;98091.21;;;9.81;76.61
59939;BME280;45801;51.810;19.444;2023-03-31T00:14:08;98097.34;;;9.81;76.75
59939;BME280;45801;51.810;19.444;2023-03-31T00:16:36;98103.70;;;9.84;76.57
59939;BME280;45801;51.810;19.444;2023-03-31T00:19:04;98099.66;;;9.83;76.71
59939;BME280;45801;51.810;19.444;2023-03-31T00:21:31;98099.04;;;9.86;76.14
59939;BME280;45801;51.810;19.444;2023-03-31T00:24:04;98096.97;;;9.87;76.25
59939;BME280;45801;51.810;19.444;2023-03-31T00:26:33;98097.76;;;9.90;75.77
59939;BME280;45801;51.810;19.444;2023-03-31T00:29:02;98092.02;;;9.91;76.09
59939;BME280;45801;51.810;19.444;2023-03-31T00:31:28;98094.21;;;9.88;76.58
59939;BME280;45801;51.810;19.444;2023-03-31T00:33:56;98094.41;;;9.89;76.52
59939;BME280;45801;51.810;19.444;2023-03-31T00:36:23;98094.41;;;9.89;76.43
59939;BME280;45801;51.810;19.444;2023-03-31T00:38:55;98091.22;;;9.81;77.22
59939;BME280;45801;51.810;19.444;2023-03-31T00:41:26;98088.66;;;9.84;77.06
59939;BME280;45801;51.810;19.444;2023-03-31T00:44:18;98087.41;;;9.76;77.55
59939;BME280;45801;51.810;19.444;2023-03-31T00:49:44;98083.04;;;9.76;77.62
59939;BME280;45801;51.810;19.444;2023-03-31T00:52:19;98072.40;;;9.78;77.81
59939;BME280;45801;51.810;19.444;2023-03-31T00:54:58;98073.22;;;9.81;77.37
59939;BME280;45801;51.810;19.444;2023-03-31T00:57:27;98073.08;;;9.77;78.11
59939;BME280;45801;51.810;19.444;2023-03-31T01:00:01;98073.02;;;9.75;78.07
59939;BME280;45801;51.810;19.444;2023-03-31T01:02:37;98071.94;;;9.79;77.65
59939;BME280;45801;51.810;19.444;2023-03-31T01:05:07;98074.77;;;9.74;78.19
59939;BME280;45801;51.810;19.444;2023-03-31T01:07:41;98068.55;;;9.71;78.50
59939;BME280;45801;51.810;19.444;2023-03-31T01:10:10;98071.06;;;9.73;78.31
59939;BME280;45801;51.810;19.444;2023-03-31T01:12:39;98065.08;;;9.72;78.23
59939;BME280;45801;51.810;19.444;2023-03-31T01:15:07;98063.05;;;9.69;78.62
59939;BME280;45801;51.810;19.444;2023-03-31T01:17:35;98065.43;;;9.66;78.89
59939;BME280;45801;51.810;19.444;2023-03-31T01:22:43;98064.19;;;9.65;79.22
59939;BME280;45801;51.810;19.444;2023-03-31T01:28:16;98071.95;;;9.55;79.53
59939;BME280;45801;51.810;19.444;2023-03-31T01:42:16;98079.65;;;9.62;78.72
59939;BME280;45801;51.810;19.444;2023-03-31T01:47:36;98082.98;;;9.56;79.28
59939;BME280;45801;51.810;19.444;2023-03-31T01:50:21;98084.57;;;9.50;79.71
59939;BME280;45801;51.810;19.444;2023-03-31T01:53:02;98089.59;;;9.48;79.63
59939;BME280;45801;51.810;19.444;2023-03-31T01:55:44;98083.00;;;9.50;79.28
59939;BME280;45801;51.810;19.444;2023-03-31T01:58:27;98085.27;;;9.57;78.75
59939;BME280;45801;51.810;19.444;2023-03-31T02:01:04;98082.36;;;9.59;78.81
59939;BME280;45801;51.810;19.444;2023-03-31T02:03:44;98079.43;;;9.54;79.14
59939;BME280;45801;51.810;19.444;2023-03-31T02:06:20;98080.96;;;9.52;78.90
59939;BME280;45801;51.810;19.444;2023-03-31T02:09:02;98080.72;;;9.50;79.13
59939;BME280;45801;51.810;19.444;2023-03-31T02:11:31;98077.22;;;9.50;79.11
59939;BME280;45801;51.810;19.444;2023-03-31T02:14:00;98074.79;;;9.50;79.07
59939;BME280;45801;51.810;19.444;2023-03-31T02:16:31;98075.22;;;9.53;78.75
59939;BME280;45801;51.810;19.444;2023-03-31T02:19:02;98078.44;;;9.50;79.11
59939;BME280;45801;51.810;19.444;2023-03-31T02:21:32;98080.20;;;9.50;78.85
59939;BME280;45801;51.810;19.444;2023-03-31T02:24:01;98077.81;;;9.52;79.12
59939;BME280;45801;51.810;19.444;2023-03-31T02:26:35;98071.75;;;9.54;78.63
59939;BME280;45801;51.810;19.444;2023-03-31T02:29:03;98072.67;;;9.55;79.01
59939;BME280;45801;51.810;19.444;2023-03-31T02:31:50;98069.76;;;9.58;78.51
59939;BME280;45801;51.810;19.444;2023-03-31T02:34:18;98067.23;;;9.55;78.84
59939;BME280;45801;51.810;19.444;2023-03-31T02:36:44;98065.54;;;9.57;78.64
59939;BME280;45801;51.810;19.444;2023-03-31T02:39:15;98061.37;;;9.58;78.53
59939;BME280;45801;51.810;19.444;2023-03-31T02:41:44;98064.11;;;9.56;78.94
59939;BME280;45801;51.810;19.444;2023-03-31T02:44:11;98065.11;;;9.54;79.23
59939;BME280;45801;51.810;19.444;2023-03-31T02:46:38;98067.94;;;9.56;78.59
59939;BME280;45801;51.810;19.444;2023-03-31T02:49:07;98067.23;;;9.55;78.87
59939;BME280;45801;51.810;19.444;2023-03-31T02:54:39;98049.79;;;9.56;78.59
59939;BME280;45801;51.810;19.444;2023-03-31T02:57:31;98050.70;;;9.58;78.81
59939;BME280;45801;51.810;19.444;2023-03-31T03:08:56;98065.11;;;9.61;78.54
59939;BME280;45801;51.810;19.444;2023-03-31T03:11:43;98063.96;;;9.51;79.34
59939;BME280;45801;51.810;19.444;2023-03-31T03:14:33;98060.80;;;9.50;79.17
59939;BME280;45801;51.810;19.444;2023-03-31T03:17:06;98061.06;;;9.53;78.75
59939;BME280;45801;51.810;19.444;2023-03-31T03:19:36;98057.44;;;9.55;78.48
59939;BME280;45801;51.810;19.444;2023-03-31T03:22:02;98057.67;;;9.57;78.41
59939;BME280;45801;51.810;19.444;2023-03-31T03:24:29;98060.58;;;9.61;77.90
59939;BME280;45801;51.810;19.444;2023-03-31T03:26:59;98063.13;;;9.59;78.46
59939;BME280;45801;51.810;19.444;2023-03-31T03:29:26;98062.55;;;9.57;78.51
59939;BME280;45801;51.810;19.444;2023-03-31T03:31:53;98061.64;;;9.55;78.18
59939;BME280;45801;51.810;19.444;2023-03-31T03:34:19;98061.15;;;9.56;78.05
59939;BME280;45801;51.810;19.444;2023-03-31T03:36:46;98064.93;;;9.54;78.57
59939;BME280;45801;51.810;19.444;2023-03-31T03:39:12;98068.06;;;9.53;78.30
59939;BME280;45801;51.810;19.444;2023-03-31T03:41:39;98066.86;;;9.48;78.63
59939;BME280;45801;51.810;19.444;2023-03-31T03:44:05;98070.80;;;9.46;78.94
59939;BME280;45801;51.810;19.444;2023-03-31T03:46:32;98064.98;;;9.44;78.83
59939;BME280;45801;51.810;19.444;2023-03-31T03:48:58;98061.27;;;9.43;78.60
59939;BME280;45801;51.810;19.444;2023-03-31T03:51:25;98064.79;;;9.43;78.26
59939;BME280;45801;51.810;19.444;2023-03-31T03:53:52;98064.61;;;9.43;78.52
59939;BME280;45801;51.810;19.444;2023-03-31T03:56:19;98066.37;;;9.49;78.14
59939;BME280;45801;51.810;19.444;2023-03-31T03:58:47;98068.45;;;9.48;78.39
59939;BME280;45801;51.810;19.444;2023-03-31T04:01:13;98070.63;;;9.45;78.45
59939;BME280;45801;51.810;19.444;2023-03-31T04:03:40;98070.05;;;9.44;78.33
59939;BME280;45801;51.810;19.444;2023-03-31T04:06:06;98068.42;;;9.42;78.32
59939;BME280;45801;51.810;19.444;2023-03-31T04:08:33;98067.56;;;9.43;78.16
59939;BME280;45801;51.810;19.444;2023-03-31T04:11:00;98066.83;;;9.42;78.11
59939;BME280;45801;51.810;19.444;2023-03-31T04:13:27;98061.20;;;9.40;78.11
59939;BME280;45801;51.810;19.444;2023-03-31T04:15:53;98064.59;;;9.30;78.61
59939;BME280;45801;51.810;19.444;2023-03-31T04:18:20;98065.08;;;9.29;78.42
59939;BME280;45801;51.810;19.444;2023-03-31T04:20:53;98065.71;;;9.27;78.21
59939;BME280;45801;51.810;19.444;2023-03-31T04:23:35;98061.38;;;9.28;77.85
59939;BME280;45801;51.810;19.444;2023-03-31T04:26:17;98055.59;;;9.27;78.03
59939;BME280;45801;51.810;19.444;2023-03-31T04:28:44;98054.20;;;9.27;77.91
59939;BME280;45801;51.810;19.444;2023-03-31T04:31:16;98054.39;;;9.28;77.88
59939;BME280;45801;51.810;19.444;2023-03-31T04:33:54;98049.15;;;9.28;77.82
59939;BME280;45801;51.810;19.444;2023-03-31T04:36:21;98044.33;;;9.24;77.73
59939;BME280;45801;51.810;19.444;2023-03-31T04:38:49;98041.94;;;9.14;78.25
59939;BME280;45801;51.810;19.444;2023-03-31T04:41:21;98042.70;;;9.17;78.07
59939;BME280;45801;51.810;19.444;2023-03-31T04:43:48;98041.83;;;9.17;77.96
59939;BME280;45801;51.810;19.444;2023-03-31T04:46:14;98039.44;;;9.19;77.99
59939;BME280;45801;51.810;19.444;2023-03-31T04:48:41;98034.81;;;9.21;77.95
59939;BME280;45801;51.810;19.444;2023-03-31T04:51:07;98033.11;;;9.23;77.83
59939;BME280;45801;51.810;19.444;2023-03-31T04:53:34;98028.02;;;9.28;77.63
59939;BME280;45801;51.810;19.444;2023-03-31T04:56:01;98027.94;;;9.32;77.56
59939;BME280;45801;51.810;19.444;2023-03-31T04:58:29;98024.08;;;9.31;77.68
59939;BME280;45801;51.810;19.444;2023-03-31T05:00:55;98026.61;;;9.34;77.69
59939;BME280;45801;51.810;19.444;2023-03-31T05:03:22;98023.02;;;9.36;77.51
59939;BME280;45801;51.810;19.444;2023-03-31T05:05:48;98020.58;;;9.37;77.44
59939;BME280;45801;51.810;19.444;2023-03-31T05:08:15;98021.77;;;9.36;77.48
59939;BME280;45801;51.810;19.444;2023-03-31T05:10:42;98021.24;;;9.35;77.54
59939;BME280;45801;51.810;19.444;2023-03-31T05:13:09;98016.83;;;9.34;77.75
59939;BME280;45801;51.810;19.444;2023-03-31T05:15:37;98011.22;;;9.33;77.30
59939;BME280;45801;51.810;19.444;2023-03-31T05:18:06;98008.96;;;9.34;77.30
59939;BME280;45801;51.810;19.444;2023-03-31T05:20:33;98010.67;;;9.39;77.35
59939;BME280;45801;51.810;19.444;2023-03-31T05:22:59;98008.89;;;9.44;76.85
59939;BME280;45801;51.810;19.444;2023-03-31T05:25:27;98011.15;;;9.43;76.88
59939;BME280;45801;51.810;19.444;2023-03-31T05:27:59;98010.77;;;9.43;76.88
59939;BME280;45801;51.810;19.444;2023-03-31T05:30:26;98012.60;;;9.45;76.70
59939;BME280;45801;51.810;19.444;2023-03-31T05:32:53;98010.96;;;9.49;76.39
59939;BME280;45801;51.810;19.444;2023-03-31T05:35:19;98003.75;;;9.54;76.35
59939;BME280;45801;51.810;19.444;2023-03-31T05:37:46;98000.89;;;9.58;76.16
59939;BME280;45801;51.810;19.444;2023-03-31T05:40:13;98004.64;;;9.62;76.02
59939;BME280;45801;51.810;19.444;2023-03-31T05:42:39;98002.27;;;9.64;75.62
59939;BME280;45801;51.810;19.444;2023-03-31T05:45:07;98002.09;;;9.64;75.68
59939;BME280;45801;51.810;19.444;2023-03-31T05:47:34;98006.35;;;9.60;75.43
59939;BME280;45801;51.810;19.444;2023-03-31T05:50:00;98013.63;;;9.57;75.60
59939;BME280;45801;51.810;19.444;2023-03-31T05:52:27;98012.36;;;9.49;75.54
59939;BME280;45801;51.810;19.444;2023-03-31T05:54:53;98014.89;;;9.46;75.76
59939;BME280;45801;51.810;19.444;2023-03-31T05:57:20;98007.60;;;9.42;75.68
59939;BME280;45801;51.810;19.444;2023-03-31T05:59:46;98006.83;;;9.32;76.17
59939;BME280;45801;51.810;19.444;2023-03-31T06:02:13;98004.37;;;9.26;76.43
59939;BME280;45801;51.810;19.444;2023-03-31T06:04:39;98001.34;;;9.30;76.06
59939;BME280;45801;51.810;19.444;2023-03-31T06:07:06;98001.63;;;9.34;75.97
59939;BME280;45801;51.810;19.444;2023-03-31T06:09:33;97997.86;;;9.36;76.10
59939;BME280;45801;51.810;19.444;2023-03-31T06:12:00;97989.02;;;9.40;75.89
59939;BME280;45801;51.810;19.444;2023-03-31T06:14:26;97987.59;;;9.38;76.03
59939;BME280;45801;51.810;19.444;2023-03-31T06:16:53;97989.08;;;9.41;75.75
59939;BME280;45801;51.810;19.444;2023-03-31T06:19:19;97987.41;;;9.45;75.74
59939;BME280;45801;51.810;19.444;2023-03-31T06:21:46;97986.64;;;9.48;75.55
59939;BME280;45801;51.810;19.444;2023-03-31T06:24:12;97986.09;;;9.54;75.34
59939;BME280;45801;51.810;19.444;2023-03-31T06:26:39;97984.88;;;9.60;75.24
59939;BME280;45801;51.810;19.444;2023-03-31T06:29:06;97987.81;;;9.66;75.16
59939;BME280;45801;51.810;19.444;2023-03-31T06:31:32;97984.03;;;9.68;74.88
59939;BME280;45801;51.810;19.444;2023-03-31T06:33:59;97985.31;;;9.70;74.74
59939;BME280;45801;51.810;19.444;2023-03-31T06:36:25;97986.77;;;9.72;74.82
59939;BME280;45801;51.810;19.444;2023-03-31T06:38:52;97987.66;;;9.73;74.73
59939;BME280;45801;51.810;19.444;2023-03-31T06:41:19;97983.52;;;9.76;74.51
59939;BME280;45801;51.810;19.444;2023-03-31T06:43:47;97980.42;;;9.78;74.28
59939;BME280;45801;51.810;19.444;2023-03-31T06:46:14;97980.77;;;9.77;74.37
59939;BME280;45801;51.810;19.444;2023-03-31T06:48:41;97980.41;;;9.70;74.18
59939;BME280;45801;51.810;19.444;2023-03-31T06:51:08;97974.15;;;9.64;74.38
59939;BME280;45801;51.810;19.444;2023-03-31T06:53:36;97971.51;;;9.64;74.41
59939;BME280;45801;51.810;19.444;2023-03-31T06:56:03;97972.40;;;9.65;74.32
59939;BME280;45801;51.810;19.444;2023-03-31T06:58:30;97970.94;;;9.69;74.23
59939;BME280;45801;51.810;19.444;2023-03-31T07:00:56;97974.52;;;9.72;74.17
59939;BME280;45801;51.810;19.444;2023-03-31T07:03:23;97978.27;;;9.75;73.99
59939;BME280;45801;51.810;19.444;2023-03-31T07:05:51;97979.84;;;9.75;73.91
59939;BME280;45801;51.810;19.444;2023-03-31T07:08:18;97982.42;;;9.80;73.98
59939;BME280;45801;51.810;19.444;2023-03-31T07:10:45;97982.70;;;9.84;74.11
59939;BME280;45801;51.810;19.444;2023-03-31T07:13:15;97982.31;;;9.83;73.55
59939;BME280;45801;51.810;19.444;2023-03-31T07:15:43;97978.95;;;9.81;73.83
59939;BME280;45801;51.810;19.444;2023-03-31T07:18:09;97977.34;;;9.80;73.77
59939;BME280;45801;51.810;19.444;2023-03-31T07:20:37;97974.30;;;9.84;73.54
59939;BME280;45801;51.810;19.444;2023-03-31T07:23:04;97972.31;;;9.88;73.57
59939;BME280;45801;51.810;19.444;2023-03-31T07:25:31;97976.10;;;9.93;73.53
59939;BME280;45801;51.810;19.444;2023-03-31T07:27:57;97974.63;;;9.90;73.35
59939;BME280;45801;51.810;19.444;2023-03-31T07:30:24;97970.70;;;9.94;73.37
59939;BME280;45801;51.810;19.444;2023-03-31T07:32:51;97962.77;;;9.99;73.27
59939;BME280;45801;51.810;19.444;2023-03-31T07:35:18;97961.14;;;10.03;73.04
59939;BME280;45801;51.810;19.444;2023-03-31T07:37:46;97961.58;;;10.06;72.84
59939;BME280;45801;51.810;19.444;2023-03-31T07:40:25;97960.98;;;10.03;72.51
59939;BME280;45801;51.810;19.444;2023-03-31T07:42:53;97956.77;;;9.97;72.68
59939;BME280;45801;51.810;19.444;2023-03-31T07:45:22;97956.81;;;9.98;72.89
59939;BME280;45801;51.810;19.444;2023-03-31T07:47:49;97950.98;;;9.96;72.73
59939;BME280;45801;51.810;19.444;2023-03-31T07:50:16;97946.99;;;9.97;72.56
59939;BME280;45801;51.810;19.444;2023-03-31T07:52:42;97941.23;;;9.97;72.54
59939;BME280;45801;51.810;19.444;2023-03-31T07:55:10;97940.99;;;10.02;72.91
59939;BME280;45801;51.810;19.444;2023-03-31T07:57:37;97939.27;;;10.03;73.21
59939;BME280;45801;51.810;19.444;2023-03-31T08:00:08;97935.57;;;10.09;72.74
59939;BME280;45801;51.810;19.444;2023-03-31T08:02:38;97937.94;;;10.13;72.82
59939;BME280;45801;51.810;19.444;2023-03-31T08:05:05;97940.54;;;10.19;72.88
59939;BME280;45801;51.810;19.444;2023-03-31T08:07:34;97941.26;;;10.28;72.57
59939;BME280;45801;51.810;19.444;2023-03-31T08:10:04;97934.52;;;10.31;72.15
59939;BME280;45801;51.810;19.444;2023-03-31T08:12:31;97932.15;;;10.27;72.16
59939;BME280;45801;51.810;19.444;2023-03-31T08:14:57;97930.34;;;10.32;72.04
59939;BME280;45801;51.810;19.444;2023-03-31T08:17:24;97926.88;;;10.33;71.96
59939;BME280;45801;51.810;19.444;2023-03-31T08:19:50;97920.23;;;10.39;71.95
59939;BME280;45801;51.810;19.444;2023-03-31T08:22:17;97921.86;;;10.42;71.91
59939;BME280;45801;51.810;19.444;2023-03-31T08:24:43;97919.71;;;10.49;71.84
59939;BME280;45801;51.810;19.444;2023-03-31T08:27:10;97913.94;;;10.56;71.94
59939;BME280;45801;51.810;19.444;2023-03-31T08:29:36;97914.16;;;10.59;71.40
59939;BME280;45801;51.810;19.444;2023-03-31T08:32:03;97914.29;;;10.64;71.33
59939;BME280;45801;51.810;19.444;2023-03-31T08:34:29;97916.14;;;10.69;71.10
59939;BME280;45801;51.810;19.444;2023-03-31T08:36:56;97914.27;;;10.72;71.06
59939;BME280;45801;51.810;19.444;2023-03-31T08:39:23;97914.77;;;10.78;70.97
59939;BME280;45801;51.810;19.444;2023-03-31T08:44:33;97906.91;;;10.88;70.77
59939;BME280;45801;51.810;19.444;2023-03-31T08:47:02;97903.67;;;10.92;70.44
59939;BME280;45801;51.810;19.444;2023-03-31T08:49:41;97899.15;;;10.93;70.22
59939;BME280;45801;51.810;19.444;2023-03-31T08:52:13;97900.16;;;11.01;70.33
59939;BME280;45801;51.810;19.444;2023-03-31T08:54:45;97898.23;;;11.01;69.96
59939;BME280;45801;51.810;19.444;2023-03-31T08:57:21;97899.18;;;11.05;69.82
59939;BME280;45801;51.810;19.444;2023-03-31T08:59:50;97897.61;;;11.05;69.72
59939;BME280;45801;51.810;19.444;2023-03-31T09:02:37;97896.98;;;11.09;70.01
59939;BME280;45801;51.810;19.444;2023-03-31T09:05:28;97893.45;;;11.15;69.93
59939;BME280;45801;51.810;19.444;2023-03-31T09:08:08;97891.76;;;11.19;69.75
59939;BME280;45801;51.810;19.444;2023-03-31T09:10:50;97886.59;;;11.23;69.86
59939;BME280;45801;51.810;19.444;2023-03-31T09:16:13;97879.41;;;11.33;69.65
59939;BME280;45801;51.810;19.444;2023-03-31T09:18:40;97873.60;;;11.42;69.79
59939;BME280;45801;51.810;19.444;2023-03-31T09:21:34;97875.11;;;11.47;69.10
59939;BME280;45801;51.810;19.444;2023-03-31T09:24:11;97872.02;;;11.52;68.67
59939;BME280;45801;51.810;19.444;2023-03-31T09:26:47;97866.83;;;11.57;68.97
59939;BME280;45801;51.810;19.444;2023-03-31T09:29:30;97860.13;;;11.53;68.27
59939;BME280;45801;51.810;19.444;2023-03-31T09:32:16;97858.80;;;11.57;68.65
59939;BME280;45801;51.810;19.444;2023-03-31T09:34:45;97857.37;;;11.67;69.01
59939;BME280;45801;51.810;19.444;2023-03-31T09:37:12;97854.06;;;11.78;68.88
59939;BME280;45801;51.810;19.444;2023-03-31T09:39:39;97852.79;;;11.86;68.37
59939;BME280;45801;51.810;19.444;2023-03-31T09:42:06;97852.90;;;11.93;68.23
59939;BME280;45801;51.810;19.444;2023-03-31T09:44:37;97847.16;;;11.96;67.89
59939;BME280;45801;51.810;19.444;2023-03-31T09:47:06;97848.19;;;11.94;66.83
59939;BME280;45801;51.810;19.444;2023-03-31T09:49:36;97844.14;;;11.93;67.02
59939;BME280;45801;51.810;19.444;2023-03-31T09:52:10;97841.35;;;11.94;66.86
59939;BME280;45801;51.810;19.444;2023-03-31T09:54:45;97839.83;;;11.88;67.04
59939;BME280;45801;51.810;19.444;2023-03-31T09:57:26;97835.45;;;11.89;66.90
59939;BME280;45801;51.810;19.444;2023-03-31T10:00:01;97830.98;;;11.94;67.15
59939;BME280;45801;51.810;19.444;2023-03-31T10:02:35;97823.98;;;11.95;67.13
59939;BME280;45801;51.810;19.444;2023-03-31T10:05:04;97818.39;;;12.07;67.62
59939;BME280;45801;51.810;19.444;2023-03-31T10:07:32;97816.44;;;12.18;67.26
59939;BME280;45801;51.810;19.444;2023-03-31T10:10:00;97808.48;;;12.28;66.69
59939;BME280;45801;51.810;19.444;2023-03-31T10:12:28;97808.06;;;12.35;66.13
59939;BME280;45801;51.810;19.444;2023-03-31T10:15:12;97801.66;;;12.41;66.06
59939;BME280;45801;51.810;19.444;2023-03-31T10:17:43;97798.92;;;12.47;65.40
59939;BME280;45801;51.810;19.444;2023-03-31T10:20:42;97794.00;;;12.48;65.08
59939;BME280;45801;51.810;19.444;2023-03-31T10:23:23;97789.45;;;12.48;65.47
59939;BME280;45801;51.810;19.444;2023-03-31T10:25:52;97788.52;;;12.58;65.67
59939;BME280;45801;51.810;19.444;2023-03-31T10:28:19;97785.83;;;12.69;65.07
59939;BME280;45801;51.810;19.444;2023-03-31T10:30:53;97780.92;;;12.69;64.28
59939;BME280;45801;51.810;19.444;2023-03-31T10:33:24;97773.91;;;12.71;64.39
59939;BME280;45801;51.810;19.444;2023-03-31T10:36:06;97768.01;;;12.78;64.50
59939;BME280;45801;51.810;19.444;2023-03-31T10:38:36;97763.52;;;12.86;64.19
59939;BME280;45801;51.810;19.444;2023-03-31T10:41:05;97758.19;;;12.96;64.16
59939;BME280;45801;51.810;19.444;2023-03-31T10:43:46;97754.21;;;13.03;63.80
59939;BME280;45801;51.810;19.444;2023-03-31T10:46:13;97755.11;;;13.04;63.03
59939;BME280;45801;51.810;19.444;2023-03-31T10:48:40;97749.89;;;13.10;63.30
59939;BME280;45801;51.810;19.444;2023-03-31T10:53:47;97751.11;;;13.28;62.86
59939;BME280;45801;51.810;19.444;2023-03-31T11:01:54;97745.64;;;13.42;62.43
59939;BME280;45801;51.810;19.444;2023-03-31T11:04:54;97747.09;;;13.48;62.07
59939;BME280;45801;51.810;19.444;2023-03-31T11:13:06;97730.77;;;13.55;61.96
59939;BME280;45801;51.810;19.444;2023-03-31T11:15:45;97729.20;;;13.57;61.88
59939;BME280;45801;51.810;19.444;2023-03-31T11:18:36;97723.23;;;13.59;61.66
59939;BME280;45801;51.810;19.444;2023-03-31T11:21:17;97716.42;;;13.66;62.23
59939;BME280;45801;51.810;19.444;2023-03-31T11:29:35;97703.33;;;13.81;60.15
59939;BME280;45801;51.810;19.444;2023-03-31T11:35:04;97692.94;;;13.79;59.76
59939;BME280;45801;51.810;19.444;2023-03-31T11:37:44;97697.16;;;13.79;59.87
59939;BME280;45801;51.810;19.444;2023-03-31T11:45:37;97688.81;;;13.69;60.10
59939;BME280;45801;51.810;19.444;2023-03-31T11:48:28;97680.73;;;13.70;60.22
59939;BME280;45801;51.810;19.444;2023-03-31T11:50:59;97677.20;;;13.68;59.20
59939;BME280;45801;51.810;19.444;2023-03-31T11:53:31;97673.16;;;13.67;59.44
59939;BME280;45801;51.810;19.444;2023-03-31T11:55:59;97665.96;;;13.69;59.99
59939;BME280;45801;51.810;19.444;2023-03-31T11:58:41;97658.93;;;13.72;59.36
59939;BME280;45801;51.810;19.444;2023-03-31T12:01:27;97659.13;;;13.75;59.47
59939;BME280;45801;51.810;19.444;2023-03-31T12:04:08;97652.08;;;13.74;59.08
59939;BME280;45801;51.810;19.444;2023-03-31T12:06:40;97645.40;;;13.74;59.35
59939;BME280;45801;51.810;19.444;2023-03-31T12:09:32;97637.84;;;13.77;59.68
59939;BME280;45801;51.810;19.444;2023-03-31T12:12:09;97637.34;;;13.81;59.93
59939;BME280;45801;51.810;19.444;2023-03-31T12:14:42;97636.84;;;13.85;60.16
59939;BME280;45801;51.810;19.444;2023-03-31T12:17:15;97633.14;;;13.87;58.98
59939;BME280;45801;51.810;19.444;2023-03-31T12:19:51;97628.20;;;13.84;58.45
59939;BME280;45801;51.810;19.444;2023-03-31T12:22:23;97626.08;;;13.83;58.83
59939;BME280;45801;51.810;19.444;2023-03-31T12:24:51;97623.63;;;13.83;59.17
59939;BME280;45801;51.810;19.444;2023-03-31T12:27:38;97620.27;;;13.83;58.47
59939;BME280;45801;51.810;19.444;2023-03-31T12:32:36;97610.23;;;13.78;58.67
59939;BME280;45801;51.810;19.444;2023-03-31T12:43:15;97607.04;;;13.75;59.54
59939;BME280;45801;51.810;19.444;2023-03-31T12:45:54;97607.20;;;13.74;61.54
59939;BME280;45801;51.810;19.444;2023-03-31T12:48:56;97599.28;;;13.71;63.11
59939;BME280;45801;51.810;19.444;2023-03-31T12:59:36;97582.66;;;13.53;68.47
59939;BME280;45801;51.810;19.444;2023-03-31T13:04:33;97578.94;;;13.47;70.17
59939;BME280;45801;51.810;19.444;2023-03-31T13:06:59;97569.08;;;13.45;70.94
59939;BME280;45801;51.810;19.444;2023-03-31T13:12:06;97562.95;;;13.48;71.59
59939;BME280;45801;51.810;19.444;2023-03-31T13:14:37;97559.61;;;13.50;71.43
59939;BME280;45801;51.810;19.444;2023-03-31T13:17:19;97553.98;;;13.55;71.55
59939;BME280;45801;51.810;19.444;2023-03-31T13:19:48;97544.17;;;13.62;73.23
59939;BME280;45801;51.810;19.444;2023-03-31T13:28:07;97517.88;;;13.95;70.67
59939;BME280;45801;51.810;19.444;2023-03-31T13:33:04;97507.02;;;14.25;67.40
59939;BME280;45801;51.810;19.444;2023-03-31T13:35:37;97498.39;;;14.28;62.17
59939;BME280;45801;51.810;19.444;2023-03-31T13:43:44;97489.60;;;14.28;58.52
59939;BME280;45801;51.810;19.444;2023-03-31T13:57:01;97465.82;;;14.28;58.16
59939;BME280;45801;51.810;19.444;2023-03-31T14:00:13;97460.01;;;14.29;57.80
59939;BME280;45801;51.810;19.444;2023-03-31T14:05:41;97446.98;;;14.41;56.14
59939;BME280;45801;51.810;19.444;2023-03-31T14:08:44;97442.04;;;14.46;55.53
59939;BME280;45801;51.810;19.444;2023-03-31T14:11:19;97441.14;;;14.48;54.48
59939;BME280;45801;51.810;19.444;2023-03-31T14:16:31;97436.04;;;14.49;53.66
59939;BME280;45801;51.810;19.444;2023-03-31T14:24:47;97419.49;;;14.41;52.80
59939;BME280;45801;51.810;19.444;2023-03-31T14:30:06;97416.33;;;14.37;53.86
59939;BME280;45801;51.810;19.444;2023-03-31T14:35:31;97413.69;;;14.32;54.08
59939;BME280;45801;51.810;19.444;2023-03-31T14:38:12;97413.86;;;14.29;54.60
59939;BME280;45801;51.810;19.444;2023-03-31T14:40:48;97423.36;;;14.26;55.69
59939;BME280;45801;51.810;19.444;2023-03-31T14:43:21;97437.28;;;14.14;58.41
59939;BME280;45801;51.810;19.444;2023-03-31T14:48:26;97430.37;;;13.72;61.92
59939;BME280;45801;51.810;19.444;2023-03-31T14:50:57;97426.66;;;13.60;63.02
59939;BME280;45801;51.810;19.444;2023-03-31T14:53:25;97422.08;;;13.54;64.49
59939;BME280;45801;51.810;19.444;2023-03-31T14:56:02;97417.85;;;13.48;64.34
59939;BME280;45801;51.810;19.444;2023-03-31T14:58:35;97415.19;;;13.45;65.02
59939;BME280;45801;51.810;19.444;2023-03-31T15:01:04;97411.32;;;13.43;65.87
59939;BME280;45801;51.810;19.444;2023-03-31T15:03:33;97406.91;;;13.43;65.31
59939;BME280;45801;51.810;19.444;2023-03-31T15:06:03;97402.88;;;13.43;65.43
59939;BME280;45801;51.810;19.444;2023-03-31T15:08:30;97403.91;;;13.42;66.04
59939;BME280;45801;51.810;19.444;2023-03-31T15:11:00;97394.95;;;13.40;66.62
59939;BME280;45801;51.810;19.444;2023-03-31T15:13:39;97389.15;;;13.41;66.42
59939;BME280;45801;51.810;19.444;2023-03-31T15:18:53;97385.83;;;13.48;68.22
59939;BME280;45801;51.810;19.444;2023-03-31T15:21:22;97384.07;;;13.51;68.34
59939;BME280;45801;51.810;19.444;2023-03-31T15:23:54;97377.56;;;13.53;68.54
59939;BME280;45801;51.810;19.444;2023-03-31T15:26:26;97374.94;;;13.56;68.40
59939;BME280;45801;51.810;19.444;2023-03-31T15:29:27;97374.59;;;13.59;68.77
59939;BME280;45801;51.810;19.444;2023-03-31T15:31:57;97368.97;;;13.59;67.66
59939;BME280;45801;51.810;19.444;2023-03-31T15:34:28;97374.05;;;13.60;68.48
59939;BME280;45801;51.810;19.444;2023-03-31T15:36:56;97383.03;;;13.59;68.49